Latest Weather Observations for Palmerville

IDQ60801

Issued at 11:02 pm EST Tuesday 28 January 2020 (issued every 10 minutes, with the page automatically refreshed every 10 minutes)

About weather observations | Map of weather stations | Latest weather observations for QLD | Other Formats
Station Details ID: 028004 Name: PALMERVILLE Lat: -16.00 Lon: 144.08 Height: 203.8 m
Data from the previous 72 hours. | See also: Recent months at Palmerville
Date/Time
EST
Temp
°C
App
Temp
°C
Dew
Point
°C
Rel
Hum
%
Delta-T
°C
Wind Press
QNH
hPa
Press
MSL
hPa
Rain since
9am
mm
Dir  Spd
km/h
Gust
km/h
Spd
kts
Gust
kts
28/11:00pm 25.7 29.2 23.6 88 1.4 N 11 17 6 9 1007.6 1006.2 14.6
28/10:30pm 26.1 29.0 23.2 84 2.0 NNE 13 19 7 10 1007.2 1005.8 14.6
28/10:00pm 26.0 28.5 23.1 84 2.0 NE 15 26 8 14 1007.0 1005.6 14.6
28/09:30pm 26.1 29.1 23.4 85 1.9 NNE 13 24 7 13 1006.9 1005.5 14.6
28/09:00pm 26.0 29.1 23.5 86 1.7 NNE 13 20 7 11 1006.9 1005.5 14.6
28/08:30pm 26.1 29.5 23.4 85 1.9 NNE 11 20 6 11 1006.8 1005.4 14.6
28/08:00pm 26.0 29.0 23.3 85 1.9 NNE 13 19 7 10 1006.7 1005.3 14.6
28/07:30pm 26.2 29.2 23.3 84 2.0 NNE 13 22 7 12 1006.2 1004.8 14.6
28/07:00pm 26.6 29.3 23.5 83 2.1 NNE 15 24 8 13 1005.7 1004.2 14.6
28/06:30pm 26.9 30.7 24.0 84 2.0 NNE 11 20 6 11 1004.8 1003.3 14.6
28/06:00pm 26.8 30.4 24.3 86 1.7 NNE 13 19 7 10 1004.5 1003.0 14.6
28/05:30pm 26.9 30.6 24.5 87 1.7 NNE 13 20 7 11 1004.5 1003.0 14.6
28/05:00pm 27.0 31.2 25.4 91 1.1 NNE 13 22 7 12 1004.2 1002.7 14.6
28/04:30pm 26.5 32.2 26.5 100 0.0 N 9 13 5 7 1004.2 1002.7 14.6
28/04:00pm 26.8 30.5 24.5 87 1.6 NNE 13 20 7 11 1003.6 1002.1 12.0
28/03:30pm 26.0 29.7 25.1 95 0.6 NNE 15 22 8 12 1003.7 1002.2 11.8
28/03:00pm 26.6 30.2 24.4 88 1.5 NE 13 26 7 14 1003.7 1002.2 10.0
28/02:30pm 27.1 30.3 24.4 85 1.9 NE 15 28 8 15 1004.4 1002.9 10.0
28/02:00pm 27.1 31.3 24.7 87 1.7 ENE 11 17 6 9 1004.6 1003.1 10.0
28/01:30pm 27.0 30.5 24.8 88 1.5 NNE 15 22 8 12 1005.2 1003.7 10.0
28/01:00pm 26.4 32.4 26.4 100 0.0 NE 7 11 4 6 1005.6 1004.1 10.0
28/12:30pm 26.2 31.2 26.0 99 0.1 N 11 15 6 8 1006.3 1004.9 3.4
28/12:00pm 29.9 31.7 23.3 67 4.6 N 19 30 10 16 1005.9 1004.5 0.0
28/11:30am 30.1 32.7 23.3 67 4.7 N 15 24 8 13 1006.0 1004.6 0.0
28/11:00am 29.8 32.2 23.7 70 4.3 NNE 17 24 9 13 1006.4 1005.0 0.0
28/10:30am 29.5 32.1 23.9 72 3.9 N 17 24 9 13 1006.9 1005.5 0.0
28/10:00am 29.1 31.3 24.0 74 3.6 N 19 30 10 16 1007.2 1005.8 0.0
28/09:30am 28.9 31.6 24.2 76 3.3 NNE 17 26 9 14 1007.0 1005.6 0.0
28/09:00am 27.8 31.1 23.8 79 2.8 NNE 13 20 7 11 1007.2 1005.8 1.6
28/08:30am 27.3 30.5 23.7 81 2.5 NE 13 20 7 11 1006.6 1005.2 1.6
28/08:00am 26.9 30.5 23.8 83 2.1 ENE 11 20 6 11 1006.4 1005.0 1.6
28/07:30am 26.5 30.4 24.2 87 1.6 NE 11 19 6 10 1006.4 1005.0 1.6
28/07:00am 25.8 30.6 24.4 92 1.0 NE 7 15 4 8 1006.6 1005.2 1.6
28/06:30am 25.3 29.6 24.3 94 0.7 NE 9 15 5 8 1006.0 1004.6 1.6
28/06:00am 25.1 29.2 23.9 93 0.8 ENE 9 15 5 8 1005.6 1004.1 1.6
28/05:30am 25.7 30.2 23.6 88 1.4 N 6 9 3 5 1005.8 1004.3 1.0
28/05:00am 25.2 30.2 24.5 96 0.5 NNE 6 11 3 6 1005.5 1004.0 1.0
28/04:30am 25.2 29.7 24.0 93 0.8 ENE 7 11 4 6 1005.4 1003.9 1.0
28/04:00am 25.2 29.8 24.2 94 0.7 ENE 7 15 4 8 1005.4 1003.9 1.0
28/03:30am 25.3 30.2 24.3 94 0.7 E 6 9 3 5 1005.2 1003.7 0.4
28/03:00am 25.6 30.2 23.8 90 1.2 ENE 6 9 3 5 1005.5 1004.0 0.2
28/02:30am 25.7 30.4 23.9 90 1.2 ENE 6 7 3 4 1006.0 1004.6 0.2
28/02:00am 25.6 30.4 24.2 92 1.0 NNE 6 9 3 5 1006.4 1005.0 0.2
28/01:30am 25.6 30.5 24.4 93 0.8 ENE 6 11 3 6 1006.5 1005.1 0.2
28/01:00am 25.7 30.7 24.8 95 0.6 ENE 7 11 4 6 1007.2 1005.8 0.2
28/12:30am 25.7 30.3 24.8 95 0.6 E 9 13 5 7 1007.7 1006.3 0.2
28/12:00am 25.8 30.2 24.4 92 1.0 ENE 9 15 5 8 1008.0 1006.5 0.2
 
Date/Time
EST
Temp
°C
App
Temp
°C
Dew
Point
°C
Rel
Hum
%
Delta-T
°C
Wind Press
QNH
hPa
Press
MSL
hPa
Rain since
9am
mm
Dir  Spd
km/h
Gust
km/h
Spd
kts
Gust
kts
27/11:30pm 25.8 29.9 24.6 93 0.8 ENE 11 15 6 8 1008.6 1007.1 0.2
27/11:00pm 25.6 30.7 25.6 100 0.0 E 9 13 5 7 1008.6 1007.1 0.2
27/10:30pm 25.6 31.1 25.3 98 0.2 ENE 6 9 3 5 1008.5 1007.0 0.2
27/10:00pm 25.5 30.9 25.5 100 0.0 NE 7 11 4 6 1008.0 1006.5 0.2
27/09:30pm 25.7 31.1 25.5 99 0.1 ENE 7 13 4 7 1007.7 1006.3 0.2
27/09:00pm 25.7 30.7 25.4 98 0.2 E 9 15 5 8 1007.9 1006.4 0.0
27/08:30pm 25.6 30.7 25.6 100 0.0 SE 9 11 5 6 1008.0 1006.5 0.0
27/08:00pm 25.7 31.3 25.7 100 0.0 S 7 11 4 6 1008.2 1006.7 0.0
27/07:30pm 26.0 31.5 25.3 96 0.5 WSW 6 9 3 5 1007.9 1006.4 0.0
27/07:00pm 27.1 31.0 23.6 81 2.4 N 9 13 5 7 1007.2 1005.8 0.0
27/06:30pm 27.5 31.7 23.5 79 2.8 NNW 7 11 4 6 1006.9 1005.5 0.0
27/06:00pm 27.4 32.7 23.0 77 3.0 CALM 0 6 0 3 1006.2 1004.8 0.0
27/05:30pm 27.6 31.5 23.0 76 3.2 NNW 7 13 4 7 1006.4 1005.0 0.0
27/05:00pm 27.8 32.7 23.6 78 2.9 N 4 7 2 4 1006.1 1004.7 0.0
27/04:30pm 27.8 32.4 23.8 79 2.8 NW 6 7 3 4 1005.4 1003.9 0.0
27/04:00pm 27.5 31.5 23.1 77 3.0 W 7 11 4 6 1005.5 1004.0 0.0
27/03:30pm 27.5 31.2 23.3 78 2.9 WSW 9 15 5 8 1006.0 1004.6 0.0
27/03:00pm 28.4 33.7 23.1 73 3.7 CALM 0 6 0 3 1005.9 1004.5 0.0
27/02:30pm 28.0 29.8 22.5 72 3.8 WSW 17 28 9 15 1006.3 1004.9 0.0
27/02:00pm 32.2 34.9 22.9 58 6.5 NNW 13 20 7 11 1006.0 1004.6 0.0
27/01:30pm 32.2 35.2 23.4 59 6.1 N 13 20 7 11 1006.3 1004.9 0.0
27/01:00pm 32.4 35.7 23.9 61 6.0 N 13 19 7 10 1006.8 1005.4 0.0
27/12:30pm 32.1 36.0 24.9 65 5.1 N 13 20 7 11 1007.2 1005.8 0.0
27/12:00pm 31.6 35.7 24.5 66 5.0 N 11 19 6 10 1008.0 1006.5 0.0
27/11:30am 30.1 33.1 23.3 67 4.7 NNE 13 19 7 10 1008.4 1006.9 0.0
27/11:00am 30.6 34.9 24.3 69 4.4 NW 9 11 5 6 1009.0 1007.5 0.0
27/10:30am 30.1 33.7 23.8 69 4.4 NW 11 17 6 9 1009.3 1007.8 0.0
27/10:00am 28.9 32.6 23.3 72 3.9 N 9 15 5 8 1009.5 1008.0 0.0
27/09:30am 28.8 33.3 23.7 74 3.5 NNW 6 11 3 6 1009.7 1008.2 0.0
27/09:00am 28.0 32.9 24.6 82 2.4 NNW 7 11 4 6 1010.1 1008.6 0.2
27/08:30am 26.7 30.7 23.8 84 2.0 NNW 9 15 5 8 1010.0 1008.5 0.2
27/08:00am 26.3 31.5 23.6 85 1.9 ENE 2 7 1 4 1009.8 1008.3 0.2
27/07:30am 25.6 29.6 23.7 89 1.3 ENE 9 11 5 6 1009.8 1008.3 0.2
27/07:00am 25.3 30.1 24.1 93 0.8 ENE 6 9 3 5 1009.5 1008.0 0.2
27/06:30am 25.2 30.7 24.0 93 0.8 NE 2 7 1 4 1009.3 1007.8 0.2
27/06:00am 25.4 29.9 24.0 92 1.0 ENE 7 13 4 7 1008.8 1007.3 0.2
27/05:30am 25.6 30.4 24.4 93 0.8 ENE 7 15 4 8 1008.2 1006.7 0.2
27/05:00am 25.8 30.4 24.8 94 0.7 NE 9 13 5 7 1008.2 1006.7 0.2
27/04:30am 25.8 31.3 25.3 97 0.4 ENE 6 9 3 5 1008.1 1006.6 0.2
27/04:00am 25.9 31.2 25.2 96 0.5 ENE 7 9 4 5 1008.0 1006.5 0.2
27/03:30am 25.8 30.7 25.3 97 0.4 ENE 9 13 5 7 1008.0 1006.5 0.2
27/03:00am 25.8 30.9 25.6 99 0.1 ENE 9 15 5 8 1007.9 1006.4 0.2
27/02:30am 25.9 31.4 25.6 98 0.2 E 7 11 4 6 1008.0 1006.5 0.2
27/02:00am 25.8 31.3 25.3 97 0.4 NE 6 9 3 5 1008.1 1006.6 0.2
27/01:30am 26.0 31.1 25.0 94 0.7 ENE 7 11 4 6 1008.8 1007.3 0.2
27/01:00am 26.2 31.3 25.0 93 0.8 ENE 7 11 4 6 1009.4 1007.9 0.2
27/12:30am 26.5 31.2 24.9 91 1.1 ENE 9 13 5 7 1009.6 1008.1 0.2
27/12:00am 26.7 31.8 24.9 90 1.3 ENE 7 11 4 6 1009.7 1008.2 0.2
 
Date/Time
EST
Temp
°C
App
Temp
°C
Dew
Point
°C
Rel
Hum
%
Delta-T
°C
Wind Press
QNH
hPa
Press
MSL
hPa
Rain since
9am
mm
Dir  Spd
km/h
Gust
km/h
Spd
kts
Gust
kts
26/11:30pm 26.9 32.0 24.9 89 1.4 ENE 7 9 4 5 1010.1 1008.6 0.2
26/11:00pm 27.1 32.9 24.6 86 1.8 E 2 7 1 4 1010.1 1008.6 0.2
26/10:30pm 27.2 32.3 24.7 86 1.8 ENE 6 11 3 6 1010.1 1008.6 0.2
26/10:00pm 27.1 33.7 25.3 90 1.3 CALM 0 0 0 0 1010.2 1008.7 0.2
26/09:30pm 26.9 33.4 25.1 90 1.3 CALM 0 0 0 0 1009.6 1008.1 0.2
26/09:00pm 26.8 31.8 24.5 87 1.6 E 6 7 3 4 1009.0 1007.5 0.2
26/08:30pm 27.0 32.7 23.7 82 2.3 CALM 0 0 0 0 1008.9 1007.4 0.2
26/08:00pm 27.3 31.7 23.5 80 2.6 W 6 7 3 4 1008.8 1007.3 0.2
26/07:30pm 27.5 31.6 23.3 78 2.9 WNW 7 11 4 6 1008.9 1007.4 0.2
26/07:00pm 27.7 32.5 24.1 81 2.5 NNW 6 9 3 5 1008.3 1006.8 0.2
26/06:30pm 27.7 32.8 24.1 81 2.5 WSW 4 7 2 4 1007.4 1006.0 0.2
26/06:00pm 27.9 31.7 23.5 77 3.0 NW 9 17 5 9 1006.8 1005.4 0.2
26/05:30pm 28.5 31.5 23.4 74 3.5 WNW 13 19 7 10 1006.3 1004.9 0.2
26/05:00pm 30.8 35.5 24.9 71 4.2 NNW 9 13 5 7 1006.2 1004.8 0.2
26/04:30pm 31.5 37.7 24.6 67 4.9 CALM 0 0 0 0 1006.0 1004.6 0.2
26/04:00pm 31.8 36.4 24.1 63 5.4 SSE 7 11 4 6 1006.1 1004.7 0.2
26/03:30pm 31.3 35.6 24.9 69 4.5 S 11 15 6 8 1006.3 1004.9 0.2
26/03:00pm 30.9 34.5 24.3 68 4.6 SSW 13 17 7 9 1006.5 1005.1 0.2
26/02:30pm 32.9 37.5 24.1 60 6.2 N 7 11 4 6 1006.8 1005.4 0.2
26/02:00pm 33.3 38.3 24.5 60 6.2 NW 6 9 3 5 1007.3 1005.9 0.2
26/01:30pm 32.6 36.6 23.8 59 6.2 NNW 9 13 5 7 1007.9 1006.4 0.2
26/01:00pm 32.2 36.4 23.4 59 6.1 WNW 7 13 4 7 1008.7 1007.2 0.2
26/12:30pm 31.8 36.1 23.6 62 5.7 NNE 7 13 4 7 1009.1 1007.6 0.2
26/12:00pm 31.8 36.7 23.6 62 5.7 NNW 4 11 2 6 1009.7 1008.2 0.2
26/11:30am 31.1 35.6 23.7 64 5.2 W 6 13 3 7 1010.1 1008.6 0.2
26/11:00am 30.4 34.7 24.3 70 4.3 NNW 9 15 5 8 1010.7 1009.3 0.2
26/10:30am 29.7 34.4 23.9 71 4.0 NW 6 11 3 6 1011.0 1009.6 0.2
26/10:00am 29.1 33.8 24.0 74 3.6 ENE 6 11 3 6 1011.1 1009.7 0.2
26/09:30am 28.0 31.9 24.2 80 2.6 E 11 15 6 8 1011.0 1009.6 0.0
26/09:00am 26.8 30.9 23.9 84 2.0 ENE 9 13 5 7 1011.1 1009.7 1.0
26/08:30am 26.1 30.6 23.6 86 1.7 E 6 13 3 7 1011.1 1009.7 1.0
26/08:00am 25.7 29.5 23.4 87 1.6 E 9 15 5 8 1010.9 1009.5 1.0
26/07:30am 25.3 29.5 24.1 93 0.8 E 9 13 5 7 1010.5 1009.1 1.0
26/07:00am 24.7 29.2 24.0 96 0.5 E 7 13 4 7 1010.2 1008.7 1.0
26/06:30am 24.6 28.4 24.1 97 0.3 E 11 15 6 8 1010.0 1008.5 1.0
26/06:00am 24.6 29.7 24.6 100 0.0 ESE 6 9 3 5 1009.6 1008.1 1.0
26/05:30am 24.6 29.5 24.6 100 0.0 E 7 11 4 6 1009.4 1007.9 1.0
26/05:00am 24.7 30.6 24.7 100 0.0 ENE 2 7 1 4 1009.5 1008.0 1.0
26/04:30am 24.8 29.3 24.6 99 0.1 E 9 15 5 8 1009.3 1007.8 1.0
26/04:00am 25.0 30.1 25.0 100 0.0 E 7 11 4 6 1009.3 1007.8 1.0
26/03:30am 25.2 30.1 25.2 100 0.0 ENE 9 13 5 7 1009.3 1007.8 1.0
26/03:00am 25.3 30.2 25.3 100 0.0 ENE 9 17 5 9 1009.4 1007.9 1.0
26/02:30am 25.5 30.2 25.5 100 0.0 E 11 15 6 8 1009.4 1007.9 1.0
26/02:00am 25.6 30.7 25.6 100 0.0 E 9 15 5 8 1009.6 1008.1 1.0
26/01:30am 25.8 30.5 25.6 99 0.1 E 11 17 6 9 1009.6 1008.1 1.0
26/01:00am 26.1 31.9 26.1 100 0.0 NE 7 11 4 6 1010.0 1008.5 1.0
26/12:30am 26.4 32.6 26.4 100 0.0 E 6 9 3 5 1010.1 1008.6 1.0
26/12:00am 26.5 32.6 26.5 100 0.0 N 7 11 4 6 1010.2 1008.7 1.0
 
Date/Time
EST
Temp
°C
App
Temp
°C
Dew
Point
°C
Rel
Hum
%
Delta-T
°C
Wind Press
QNH
hPa
Press
MSL
hPa
Rain since
9am
mm
Dir  Spd
km/h
Gust
km/h
Spd
kts
Gust
kts
25/11:30pm 26.6 32.5 25.9 96 0.5 ESE 6 9 3 5 1010.5 1009.1 1.0

Other formats

Comma delimited format used in spreadsheet applications
http://www.bom.gov.au/fwo/IDQ60801/IDQ60801.94276.axf

JavaScript Object Notation format (JSON) in row-major order
http://www.bom.gov.au/fwo/IDQ60801/IDQ60801.94276.json

Data quality

Most of these data are generated automatically and are frequently updated. Quality checks on data are not normally performed. It is possible for incorrect values to appear. Refer to information at About Latest Weather Observations and please check the disclaimer before using these data.